hwlogo.jpg (8581 bytes)
Home Your Weather Products Services Weather On Your Site Contact
HW Version Logo
Weather Info
Your Weather (Options)
Canadian Weather
International Weather
Enter your " Place, State", US Zip Code or ICAO:  
Forecast Information Radar Information
Val Dor, Québec, Canada  Lat: 48.03N, Lon: 77.77W
ICAO Used: CYVO
Current Conditions
Updated: 2:00 AM EST MON FEB 19 2018
Sun & Moon Information
Overcast
Overcast
Temp: -3°C
Humidity: 73%
Wind Speed: S 13 MPH G 18
Barometer: 1016 mb
Dewpoint: -7°C
Heat Index: -3°C
Wind Chill: -10°C
Civil Twilight: 6:41 AM EST Moon Phase:
Waxing Crescent Moon
Sunrise: 7:13 AM EST
Sunset: 5:36 PM EST
Civil Twilight: 6:08 PM EST
Forecast for Val Dor, QC:
(Forecast based on TAF for )
0100 AM EST MON FEB 19 2018
  
OVERNIGHT MORNING AFTERNOON
Light
Snow
Light
Snow
Light
Snow
ZoneCast:
Dated: 0100 AM EST MON FEB 19 2018
Overnight...Overcast and light snow with winds from the south at 12 mph.

Morning...Overcast and light snow with winds from the south at 12 mph.

Afternoon...Overcast and light snow with winds from the southwest at 14 mph.

Original Encoded TAF:
Dated: 0100 AM EST MON FEB 19 2018
2018/02/19 06:00
TAF CYVO 190545Z 1906/1918 18010KT P6SM -SN OVC060 
      TEMPO 1906/1909 5SM -SN OVC020 
     FM191000 18012KT 2SM -SN OVC010 
      TEMPO 1910/1916 6SM -SN PROB30 1910/1913 1SM -SN 
     FM191600 22012KT 6SM -SN OVC015 
      TEMPO 1916/1918 5SM -SN 
      RMK FCST BASED ON AUTO OBS. NXT FCST BY 191200Z